Time;durP1;ratioP1;P1;durP2;ratioP2;P2;SDS_P1;SDS_P2;PMS_P1;PMS_P2;Temp;Humidity;BMP_temperature;BMP_pressure;BME280_temperature;BME280_humidity;BME280_pressure;Samples;Min_cycle;Max_cycle;Signal;HPM_P1;HPM_P2
2023/08/09 00:00:28;;;;;;;1.90;1.33;;;;;;;24.64;37.93;95317.03;6309572;27;109069;-63
2023/08/09 00:03:31;;;;;;;1.60;1.42;;;;;;;24.64;37.92;95317.03;6312931;27;112030;-63
2023/08/09 00:06:34;;;;;;;2.17;1.70;;;;;;;24.64;37.97;95310.91;6310750;27;110729;-62
2023/08/09 00:09:38;;;;;;;1.83;1.70;;;;;;;24.60;38.06;95307.28;6300091;27;111399;-62
2023/08/09 00:12:43;;;;;;;1.53;1.30;;;;;;;24.62;37.87;95307.75;6312511;27;109294;-61
2023/08/09 00:15:46;;;;;;;1.48;1.38;;;;;;;24.63;37.83;95312.00;6312042;27;109550;-61
2023/08/09 00:18:49;;;;;;;2.00;1.50;;;;;;;24.60;38.11;95310.75;6311949;27;109111;-62
2023/08/09 00:21:53;;;;;;;1.83;1.50;;;;;;;24.58;38.08;95304.16;6302522;27;108784;-63
2023/08/09 00:24:56;;;;;;;1.60;1.50;;;;;;;24.57;37.90;95305.25;6312928;27;109512;-62
2023/08/09 00:28:02;;;;;;;1.63;1.52;;;;;;;24.55;37.87;95304.78;6312388;27;109258;-63
2023/08/09 00:31:05;;;;;;;2.50;1.60;;;;;;;24.52;37.97;95308.84;6302420;27;109209;-62
2023/08/09 00:34:10;;;;;;;1.45;1.35;;;;;;;24.48;37.85;95303.34;6311428;27;109175;-62
2023/08/09 00:37:13;;;;;;;2.00;1.50;;;;;;;24.46;37.96;95302.88;6286854;27;109388;-62
2023/08/09 00:40:17;;;;;;;1.80;1.60;;;;;;;24.47;37.95;95288.41;6286611;27;109164;-62
2023/08/09 00:43:21;;;;;;;1.80;1.60;;;;;;;24.48;37.95;95289.97;6276504;27;110204;-62
2023/08/09 00:46:24;;;;;;;1.70;1.60;;;;;;;24.48;38.09;95291.84;6291499;27;109716;-62
2023/08/09 00:49:28;;;;;;;2.00;1.80;;;;;;;24.48;37.80;95291.84;6311778;27;109148;-62
2023/08/09 00:52:31;;;;;;;1.50;1.40;;;;;;;24.48;37.94;95291.84;6299515;27;109426;-62
2023/08/09 00:55:34;;;;;;;1.50;1.40;;;;;;;24.44;37.56;95291.69;6275408;27;110187;-62
2023/08/09 00:58:39;;;;;;;1.50;1.40;;;;;;;24.42;37.77;95285.88;6308910;27;109098;-63
2023/08/09 01:01:42;;;;;;;1.60;1.50;;;;;;;24.45;38.00;95290.59;6311846;27;109566;-62
2023/08/09 01:04:45;;;;;;;1.67;1.57;;;;;;;24.46;37.87;95286.03;6306524;27;109909;-63
2023/08/09 01:07:55;;;;;;;1.80;1.70;;;;;;;24.46;37.90;95289.50;6305770;27;109334;-62
2023/08/09 01:11:08;;;;;;;2.10;1.90;;;;;;;24.42;37.78;95285.09;6312754;27;109006;-62
2023/08/09 01:14:14;;;;;;;2.60;2.40;;;;;;;24.40;38.08;95289.97;6296455;27;109064;-62
2023/08/09 01:17:18;;;;;;;2.50;2.13;;;;;;;24.35;37.86;95285.53;6303708;27;111853;-62
2023/08/09 01:20:23;;;;;;;2.87;2.20;;;;;;;24.34;37.62;95281.31;6324272;27;109273;-62
2023/08/09 01:23:32;;;;;;;2.30;2.00;;;;;;;24.33;37.75;95290.44;6313694;27;109285;-62
2023/08/09 01:26:39;;;;;;;2.50;2.30;;;;;;;24.35;37.62;95298.91;6295331;27;109414;-62
2023/08/09 01:29:43;;;;;;;2.40;2.20;;;;;;;24.30;38.61;95293.72;6315116;27;109215;-62
2023/08/09 01:32:46;;;;;;;2.60;2.30;;;;;;;24.27;38.00;95290.91;6314601;27;110326;-62
2023/08/09 01:35:54;;;;;;;2.17;2.00;;;;;;;24.28;37.54;95293.25;6317639;27;110151;-62
2023/08/09 01:39:07;;;;;;;3.40;2.10;;;;;;;24.29;37.70;95299.41;6309218;27;109214;-62
2023/08/09 01:42:12;;;;;;;2.30;2.10;;;;;;;24.24;37.54;95292.31;6303900;27;109190;-63
2023/08/09 01:45:16;;;;;;;2.40;1.90;;;;;;;24.29;37.86;95302.84;6335430;27;109399;-62
2023/08/09 01:48:19;;;;;;;2.10;1.90;;;;;;;24.31;37.82;95297.19;6310874;27;109157;-62
2023/08/09 01:51:22;;;;;;;2.70;1.80;;;;;;;24.28;37.87;95300.50;6302331;27;109143;-62
2023/08/09 01:54:27;;;;;;;2.45;2.00;;;;;;;24.25;37.94;95298.47;6310894;27;109375;-61
2023/08/09 01:57:30;;;;;;;1.90;1.80;;;;;;;24.26;37.84;95297.34;6305602;27;109251;-61
2023/08/09 02:00:35;;;;;;;1.80;1.70;;;;;;;24.26;37.71;95297.34;6314245;27;110416;-60
2023/08/09 02:03:38;;;;;;;1.77;1.67;;;;;;;24.28;37.79;95300.50;6306024;27;109532;-63
2023/08/09 02:06:41;;;;;;;1.73;1.63;;;;;;;24.26;37.71;95295.47;6293872;27;109956;-61
2023/08/09 02:09:46;;;;;;;2.80;1.70;;;;;;;24.25;37.78;95295.78;6308660;27;109146;-62
2023/08/09 02:12:49;;;;;;;1.90;1.60;;;;;;;24.22;37.55;95299.88;6285324;27;109153;-61
2023/08/09 02:15:52;;;;;;;1.75;1.65;;;;;;;24.17;37.72;95298.13;6303742;27;108972;-61
2023/08/09 02:18:55;;;;;;;1.80;1.60;;;;;;;24.17;37.77;95300.78;6309313;27;109060;-62
2023/08/09 02:21:58;;;;;;;2.10;1.83;;;;;;;24.16;37.52;95301.09;6309988;27;109497;-61
2023/08/09 02:25:03;;;;;;;1.80;1.70;;;;;;;24.14;37.87;95300.63;6299909;27;112117;-61
2023/08/09 02:28:08;;;;;;;1.90;1.70;;;;;;;24.13;37.73;95302.53;6309889;27;109064;-60
2023/08/09 02:31:11;;;;;;;2.10;1.80;;;;;;;24.10;37.50;95292.47;6310160;27;109308;-60
2023/08/09 02:34:14;;;;;;;2.20;1.90;;;;;;;24.12;38.09;95298.28;6300817;27;109251;-60
2023/08/09 02:37:18;;;;;;;2.20;2.00;;;;;;;24.14;37.84;95297.97;6278832;27;109475;-62
2023/08/09 02:40:23;;;;;;;2.10;1.90;;;;;;;24.12;37.25;95306.28;6309697;27;109439;-60
2023/08/09 02:43:26;;;;;;;1.90;1.70;;;;;;;24.07;37.63;95300.31;6309448;27;109105;-61
2023/08/09 02:46:29;;;;;;;2.30;2.00;;;;;;;24.08;37.72;95307.25;6309973;27;109181;-61
2023/08/09 02:49:32;;;;;;;2.50;2.30;;;;;;;24.09;37.80;95314.94;6302068;27;109344;-60
2023/08/09 02:52:36;;;;;;;4.05;3.72;;;;;;;24.08;37.64;95313.38;6300273;27;110179;-61
2023/08/09 02:55:42;;;;;;;3.30;3.00;;;;;;;24.10;37.62;95319.19;6313816;27;109388;-61
2023/08/09 02:58:45;;;;;;;3.20;3.00;;;;;;;24.07;37.44;95317.16;6304569;27;110209;-63
2023/08/09 03:01:48;;;;;;;3.53;3.22;;;;;;;24.05;37.83;95322.03;6313354;27;108999;-61
2023/08/09 03:04:51;;;;;;;3.40;3.10;;;;;;;24.01;37.51;95326.38;6314162;27;109171;-63
2023/08/09 03:07:54;;;;;;;2.53;2.23;;;;;;;23.99;37.29;95328.56;6312490;27;109291;-62
2023/08/09 03:10:59;;;;;;;3.50;3.20;;;;;;;24.02;37.79;95327.19;6302319;27;109063;-62
2023/08/09 03:14:02;;;;;;;2.92;2.72;;;;;;;24.00;37.57;95318.69;6313331;27;109532;-63
2023/08/09 03:17:05;;;;;;;5.45;5.05;;;;;;;24.02;37.67;95324.50;6322738;27;109184;-62
2023/08/09 03:20:11;;;;;;;5.30;4.80;;;;;;;24.01;37.51;95331.75;6309119;27;110171;-63
2023/08/09 03:23:14;;;;;;;3.70;3.40;;;;;;;24.02;37.68;95340.53;6308332;27;109459;-62
2023/08/09 03:26:19;;;;;;;2.75;2.55;;;;;;;23.98;37.47;95335.00;6330890;27;109206;-62
2023/08/09 03:29:22;;;;;;;3.17;2.40;;;;;;;23.98;37.28;95334.22;6314373;27;110466;-62
2023/08/09 03:32:25;;;;;;;2.70;2.50;;;;;;;23.98;37.63;95332.34;6308277;27;109222;-62
2023/08/09 03:35:28;;;;;;;2.45;2.25;;;;;;;23.96;37.29;95339.88;6309408;27;111588;-61
2023/08/09 03:38:31;;;;;;;2.70;2.30;;;;;;;23.94;37.54;95341.28;6313468;27;109017;-62
2023/08/09 03:41:36;;;;;;;3.55;3.25;;;;;;;23.90;37.41;95335.78;6309171;27;109162;-62
2023/08/09 03:44:39;;;;;;;4.72;3.80;;;;;;;23.89;37.88;95339.56;6299507;27;110147;-62
2023/08/09 03:47:42;;;;;;;6.67;5.63;;;;;;;23.93;37.50;95350.41;6313406;27;109259;-62
2023/08/09 03:50:45;;;;;;;5.17;4.70;;;;;;;23.92;37.42;95354.19;6312977;27;109405;-63
2023/08/09 03:53:49;;;;;;;4.47;3.83;;;;;;;23.89;37.81;95359.06;6313151;27;109193;-63
2023/08/09 03:56:53;;;;;;;3.50;3.20;;;;;;;23.93;37.61;95361.09;6302362;27;109200;-63
2023/08/09 03:59:56;;;;;;;3.97;3.67;;;;;;;23.92;37.64;95363.00;6297296;27;109185;-63
2023/08/09 04:02:59;;;;;;;4.70;4.30;;;;;;;23.96;37.72;95360.47;6293621;27;109231;-62
2023/08/09 04:06:03;;;;;;;5.20;3.67;;;;;;;23.99;37.77;95354.50;6311746;27;109183;-63
2023/08/09 04:09:07;;;;;;;3.75;3.45;;;;;;;24.01;38.03;95363.03;6304107;27;109177;-63
2023/08/09 04:12:11;;;;;;;5.43;4.93;;;;;;;24.06;38.05;95370.94;6312896;27;109176;-62
2023/08/09 04:15:14;;;;;;;7.25;5.90;;;;;;;24.06;38.09;95370.94;6311803;27;109094;-63
2023/08/09 04:18:18;;;;;;;8.52;7.82;;;;;;;24.04;38.02;95367.78;6284823;27;109227;-64
2023/08/09 04:21:21;;;;;;;11.85;10.85;;;;;;;24.06;38.34;95362.91;6312074;27;109219;-64
2023/08/09 04:24:24;;;;;;;8.17;7.57;;;;;;;24.10;38.49;95366.53;6312400;27;109436;-63
2023/08/09 04:27:29;;;;;;;6.90;6.40;;;;;;;24.11;38.43;95370.78;6312758;27;109705;-64
2023/08/09 04:30:32;;;;;;;7.38;6.78;;;;;;;24.01;38.59;95368.38;6301985;27;110001;-64
2023/08/09 04:33:36;;;;;;;6.10;5.60;;;;;;;23.95;39.32;95369.59;6309181;27;109149;-63
2023/08/09 04:36:39;;;;;;;5.57;4.97;;;;;;;23.38;40.15;95366.84;6313001;27;109608;-72
2023/08/09 04:39:42;;;;;;;5.13;4.35;;;;;;;22.28;42.21;95361.81;6312379;27;109086;-71
2023/08/09 04:42:47;;;;;;;4.00;3.60;;;;;;;22.05;42.68;95364.41;6301689;27;109225;-72
2023/08/09 04:45:50;;;;;;;5.40;4.30;;;;;;;22.97;40.63;95368.56;6312330;27;109761;-71
2023/08/09 17:36:27;;;;;;;33.47;4.93;;;;;;;25.79;42.67;95038.50;6339778;27;108989;-70
2023/08/09 17:39:31;;;;;;;19.60;4.30;;;;;;;25.80;42.37;95045.44;6343118;27;109109;-70
2023/08/09 17:42:34;;;;;;;14.90;3.70;;;;;;;25.85;42.49;95046.00;6351690;27;110295;-71
2023/08/09 17:45:40;;;;;;;8.23;3.10;;;;;;;25.86;42.09;95042.19;6342582;27;109352;-71
2023/08/09 17:48:44;;;;;;;8.77;3.17;;;;;;;25.90;41.43;95039.66;6340750;27;109171;-71
2023/08/09 17:51:48;;;;;;;4.85;2.92;;;;;;;25.93;41.21;95047.03;6349710;27;109091;-70
2023/08/09 17:54:53;;;;;;;4.53;2.85;;;;;;;25.94;40.90;95048.59;6349338;27;109127;-71
2023/08/09 17:57:57;;;;;;;9.43;3.10;;;;;;;25.96;40.51;95051.75;6331649;27;108901;-72
2023/08/09 18:01:00;;;;;;;10.15;2.80;;;;;;;25.67;40.55;95048.03;6336628;27;109099;-72
2023/08/09 18:04:03;;;;;;;8.30;2.67;;;;;;;25.51;40.99;95057.78;6352626;27;109117;-65
2023/08/09 18:07:08;;;;;;;5.90;2.75;;;;;;;25.64;41.28;95058.66;6345806;27;109059;-65
2023/08/09 18:10:13;;;;;;;4.93;2.90;;;;;;;25.62;40.90;95061.66;6312609;27;109881;-64
2023/08/09 18:13:16;;;;;;;5.55;2.90;;;;;;;25.69;40.28;95071.84;6332666;27;108985;-64
2023/08/09 18:16:19;;;;;;;3.45;2.67;;;;;;;25.76;40.34;95068.66;6324148;27;108945;-74
2023/08/09 18:19:22;;;;;;;4.00;3.20;;;;;;;25.78;40.50;95072.56;6319898;27;109231;-63
2023/08/09 18:22:27;;;;;;;4.32;2.83;;;;;;;25.80;40.31;95070.34;6319450;27;109791;-73
2023/08/09 18:25:31;;;;;;;4.90;2.80;;;;;;;25.85;40.19;95082.75;6321252;27;109148;-73
2023/08/09 18:28:34;;;;;;;6.03;3.00;;;;;;;25.84;40.27;95081.97;6330335;27;109210;-73
2023/08/09 18:31:37;;;;;;;4.72;3.10;;;;;;;25.84;40.27;95091.91;6310080;27;110336;-72
2023/08/09 18:34:40;;;;;;;3.60;3.30;;;;;;;25.86;40.27;95084.31;6331303;27;109465;-72
2023/08/09 18:37:45;;;;;;;3.60;2.92;;;;;;;25.86;39.94;95087.00;6314118;27;111403;-73
2023/08/09 18:40:49;;;;;;;3.85;3.25;;;;;;;25.86;39.87;95092.34;6331745;27;109125;-72
2023/08/09 18:43:52;;;;;;;3.30;3.00;;;;;;;25.86;39.95;95093.13;6320132;27;109981;-73
2023/08/09 18:46:55;;;;;;;3.33;3.03;;;;;;;25.86;39.62;95100.41;6304199;27;109477;-72
2023/08/09 18:49:58;;;;;;;5.28;4.78;;;;;;;25.88;39.79;95095.53;6311317;27;109454;-72
2023/08/09 18:53:03;;;;;;;7.80;5.40;;;;;;;25.77;39.15;95103.16;6290719;27;109360;-66
2023/08/09 18:56:07;;;;;;;6.33;5.20;;;;;;;25.63;40.06;95100.75;6310864;27;109143;-75
2023/08/09 18:59:10;;;;;;;5.75;5.05;;;;;;;25.78;39.57;95109.31;6314727;27;109628;-74
2023/08/09 19:02:13;;;;;;;5.78;5.00;;;;;;;25.87;39.38;95107.31;6307614;27;108790;-73
2023/08/09 19:05:17;;;;;;;6.30;5.28;;;;;;;25.91;39.31;95113.63;6304177;27;110384;-72
2023/08/09 19:08:21;;;;;;;5.07;4.40;;;;;;;25.80;39.21;95109.78;6309798;27;109583;-65
2023/08/09 19:11:25;;;;;;;8.93;4.73;;;;;;;25.53;39.14;95106.47;6297601;27;110121;-65
2023/08/09 19:14:28;;;;;;;5.72;4.03;;;;;;;25.51;39.55;95102.56;6305357;27;109146;-64
2023/08/09 19:17:31;;;;;;;5.43;4.13;;;;;;;25.54;39.33;95102.72;6288052;27;108840;-65
2023/08/09 19:20:34;;;;;;;5.88;4.93;;;;;;;25.55;38.90;95104.28;6300739;27;108984;-65
2023/08/09 19:23:39;;;;;;;6.50;5.00;;;;;;;25.57;39.55;95104.75;6308912;27;109135;-64
2023/08/09 19:26:42;;;;;;;5.30;4.80;;;;;;;25.71;38.94;95106.34;6306214;27;109354;-73
2023/08/09 19:29:46;;;;;;;5.63;4.93;;;;;;;25.80;38.89;95107.88;6293165;27;110146;-74
2023/08/09 19:32:50;;;;;;;5.10;4.60;;;;;;;25.85;38.68;95106.88;6310972;27;109334;-73
2023/08/09 19:35:53;;;;;;;8.15;4.47;;;;;;;25.82;38.95;95102.19;6298546;27;109275;-72
2023/08/09 19:38:58;;;;;;;4.70;4.20;;;;;;;25.81;38.95;95098.72;6293993;27;108882;-64
2023/08/09 19:42:01;;;;;;;4.53;3.58;;;;;;;25.82;38.69;95096.81;6300385;27;109135;-74
2023/08/09 19:45:05;;;;;;;4.68;3.40;;;;;;;25.81;39.24;95093.34;6305259;27;109753;-74
2023/08/09 19:48:08;;;;;;;3.80;3.40;;;;;;;25.82;38.95;95092.25;6303867;27;110148;-74
2023/08/09 19:51:11;;;;;;;3.50;3.20;;;;;;;25.82;39.00;95088.78;6287208;27;109093;-73
2023/08/09 19:54:16;;;;;;;4.40;3.40;;;;;;;25.80;38.71;95088.31;6312696;27;109073;-74
2023/08/09 19:57:19;;;;;;;3.60;3.17;;;;;;;25.78;38.79;95088.66;6308156;27;109389;-72
2023/08/09 20:00:22;;;;;;;3.50;3.20;;;;;;;25.76;38.68;95082.84;6309075;27;109171;-73
2023/08/09 20:03:26;;;;;;;3.85;2.80;;;;;;;25.78;38.97;95083.28;6294748;27;108976;-68
2023/08/09 20:06:29;;;;;;;3.83;2.78;;;;;;;25.82;38.88;95086.09;6299063;27;109613;-66
2023/08/09 20:09:34;;;;;;;3.20;2.40;;;;;;;25.76;39.03;95090.88;6307857;27;108895;-67
2023/08/09 20:12:38;;;;;;;3.60;2.80;;;;;;;25.44;38.52;95095.06;6294643;27;109336;-67
2023/08/09 20:15:41;;;;;;;3.37;2.70;;;;;;;25.31;38.93;95090.69;6304261;27;109372;-67
2023/08/09 20:18:44;;;;;;;2.30;2.10;;;;;;;25.31;38.73;95094.16;6307233;27;109827;-67
2023/08/09 20:21:47;;;;;;;3.47;2.47;;;;;;;25.30;38.62;95099.84;6292279;27;109261;-66
2023/08/09 20:24:52;;;;;;;3.00;2.70;;;;;;;25.12;38.50;95101.06;6301396;27;109615;-67
2023/08/09 20:27:55;;;;;;;4.53;3.72;;;;;;;25.03;38.58;95096.53;6311252;27;110073;-67
2023/08/09 20:31:02;;;;;;;3.60;2.30;;;;;;;24.93;38.66;95096.91;6308363;27;110152;-64
2023/08/09 20:34:05;;;;;;;6.53;2.95;;;;;;;25.11;38.75;95102.94;6311395;27;109044;-70
2023/08/09 20:37:08;;;;;;;4.70;3.20;;;;;;;25.28;38.71;95094.03;6292062;27;110146;-63
2023/08/09 20:40:13;;;;;;;3.58;2.90;;;;;;;25.38;38.17;95109.75;6293322;27;108962;-61
2023/08/09 20:43:17;;;;;;;7.18;2.60;;;;;;;25.45;38.47;95104.66;6292459;27;109097;-62
2023/08/09 20:46:20;;;;;;;3.73;2.70;;;;;;;25.49;39.00;95102.09;6294713;27;109155;-63
2023/08/09 20:49:23;;;;;;;3.70;2.60;;;;;;;25.50;38.51;95101.78;6280208;27;109515;-63
2023/08/09 20:52:26;;;;;;;4.70;2.75;;;;;;;25.52;38.32;95114.84;6300904;27;108994;-61
2023/08/09 20:55:31;;;;;;;3.75;2.70;;;;;;;25.53;38.65;95117.19;6298236;27;109141;-62
2023/08/09 20:58:34;;;;;;;3.10;2.40;;;;;;;25.53;38.39;95111.84;6291379;27;109109;-63
2023/08/09 21:01:37;;;;;;;3.13;2.40;;;;;;;25.53;38.54;95117.19;6308162;27;109103;-63
2023/08/09 21:04:41;;;;;;;5.70;2.40;;;;;;;25.53;38.66;95103.81;6295424;27;109104;-63
2023/08/09 21:07:44;;;;;;;2.92;2.45;;;;;;;25.53;38.26;95105.69;6320813;27;109167;-63
2023/08/09 21:10:51;;;;;;;3.70;2.40;;;;;;;25.54;38.60;95099.22;6303623;27;110077;-63
2023/08/09 21:13:55;;;;;;;2.35;2.15;;;;;;;25.54;38.49;95108.06;6286995;27;109118;-62
2023/08/09 21:16:58;;;;;;;3.00;2.30;;;;;;;25.54;38.63;95102.72;6301414;27;108753;-62
2023/08/09 21:20:01;;;;;;;3.38;2.45;;;;;;;25.56;38.52;95105.84;6295250;27;111009;-63
2023/08/09 21:23:05;;;;;;;2.90;2.17;;;;;;;25.55;38.56;95115.00;6279176;27;109023;-62
2023/08/09 21:26:11;;;;;;;2.80;2.20;;;;;;;25.56;38.84;95121.16;6298924;27;108961;-63
2023/08/09 21:29:15;;;;;;;2.75;2.13;;;;;;;25.54;38.55;95110.75;6311593;27;109184;-63
2023/08/09 21:32:18;;;;;;;2.97;2.00;;;;;;;25.53;38.52;95106.47;6288139;27;110135;-61
2023/08/09 21:35:22;;;;;;;2.60;2.10;;;;;;;25.53;38.64;95117.19;6304693;27;108977;-63
2023/08/09 21:38:25;;;;;;;3.10;2.00;;;;;;;25.53;38.51;95117.19;6300658;27;109332;-63
2023/08/09 21:41:34;;;;;;;2.30;2.00;;;;;;;25.53;38.60;95111.84;6324462;27;109008;-65
2023/08/09 21:44:37;;;;;;;4.28;2.47;;;;;;;25.52;38.63;95115.63;6292432;27;109932;-62
2023/08/09 21:47:40;;;;;;;2.33;1.93;;;;;;;25.50;38.57;95109.81;6294305;27;108996;-61
2023/08/09 21:50:49;;;;;;;2.20;2.00;;;;;;;25.50;38.68;95111.72;6294656;27;110416;-61
2023/08/09 21:53:52;;;;;;;2.03;1.80;;;;;;;25.51;38.63;95110.59;6304971;27;109090;-61
2023/08/09 21:56:57;;;;;;;2.50;1.90;;;;;;;25.51;38.54;95118.63;6287705;27;109121;-61
2023/08/09 22:00:00;;;;;;;2.10;1.90;;;;;;;25.50;38.75;95114.38;6288396;27;109334;-60
2023/08/09 22:03:03;;;;;;;2.20;2.00;;;;;;;25.49;38.67;95113.59;6317374;27;109101;-61
2023/08/09 22:06:07;;;;;;;2.20;2.00;;;;;;;25.50;38.67;95111.72;6304876;27;109747;-60
2023/08/09 22:09:10;;;;;;;2.40;2.20;;;;;;;25.48;38.32;95098.66;6281261;27;110164;-61
2023/08/09 22:12:15;;;;;;;2.50;2.00;;;;;;;25.48;38.52;95103.22;6310648;27;109997;-61
2023/08/09 22:15:19;;;;;;;2.40;2.20;;;;;;;25.45;38.48;95104.66;6308778;27;109107;-61
2023/08/09 22:18:22;;;;;;;2.20;1.90;;;;;;;25.47;38.71;95110.47;6275480;27;112579;-59
2023/08/09 22:21:25;;;;;;;3.20;1.90;;;;;;;25.47;38.59;95118.50;6289315;27;109054;-61
2023/08/09 22:24:28;;;;;;;2.88;2.00;;;;;;;25.47;38.71;95118.50;6290218;27;108936;-60
2023/08/09 22:27:33;;;;;;;2.30;2.10;;;;;;;25.46;38.08;95114.25;6293347;27;109731;-61
2023/08/09 22:30:36;;;;;;;2.53;1.88;;;;;;;25.49;38.49;95104.78;6290719;27;109307;-60
2023/08/09 22:33:39;;;;;;;1.95;1.73;;;;;;;25.49;38.68;95099.44;6291623;27;110606;-59
2023/08/09 22:36:42;;;;;;;2.20;1.80;;;;;;;25.51;38.58;95102.56;6305573;27;109269;-61
2023/08/09 22:39:46;;;;;;;1.80;1.67;;;;;;;25.52;38.55;95107.59;6314847;27;110018;-62
2023/08/09 22:42:51;;;;;;;2.30;1.80;;;;;;;25.52;38.46;95102.22;6280976;27;109134;-61
2023/08/09 22:45:54;;;;;;;2.50;1.80;;;;;;;25.54;38.72;95101.91;6305259;27;109784;-61
2023/08/09 22:48:57;;;;;;;1.77;1.63;;;;;;;25.54;38.79;95085.81;6288634;27;110691;-61
2023/08/09 22:52:00;;;;;;;2.20;1.60;;;;;;;25.54;38.88;95091.19;6299546;27;110497;-63
2023/08/09 22:55:06;;;;;;;2.30;1.60;;;;;;;25.54;38.71;95093.88;6303686;27;108936;-60
2023/08/09 22:58:11;;;;;;;2.30;1.80;;;;;;;25.54;39.33;95099.22;6306683;27;108911;-73
2023/08/09 23:01:14;;;;;;;2.65;1.80;;;;;;;25.56;39.24;95103.19;6321020;27;108957;-75
2023/08/09 23:04:17;;;;;;;1.88;1.70;;;;;;;25.55;39.26;95098.94;6280779;27;109962;-63
2023/08/09 23:07:22;;;;;;;2.95;1.80;;;;;;;25.44;39.38;95102.31;6298101;27;109046;-74
2023/08/09 23:10:25;;;;;;;3.23;2.00;;;;;;;25.46;39.70;95108.13;6310240;27;109326;-73
2023/08/09 23:13:29;;;;;;;2.97;1.77;;;;;;;25.48;39.34;95103.22;6299095;27;111359;-74
2023/08/09 23:16:32;;;;;;;3.17;1.75;;;;;;;25.48;39.54;95095.97;6291059;27;109468;-74
2023/08/09 23:19:36;;;;;;;2.90;2.00;;;;;;;25.52;39.67;95094.19;6289169;27;108975;-75
2023/08/09 23:22:39;;;;;;;4.18;1.80;;;;;;;25.54;39.73;95102.72;6293673;27;110034;-74
2023/08/09 23:25:42;;;;;;;3.35;2.10;;;;;;;25.53;39.99;95093.09;6289543;27;109324;-73
2023/08/09 23:28:47;;;;;;;2.28;2.08;;;;;;;25.55;40.13;95093.56;6295120;27;109116;-72
2023/08/09 23:31:51;;;;;;;2.05;1.80;;;;;;;25.55;39.55;95093.56;6304475;27;109516;-74
2023/08/09 23:34:54;;;;;;;2.83;1.90;;;;;;;25.52;39.68;95091.50;6293446;27;109573;-73
2023/08/09 23:37:58;;;;;;;2.90;2.00;;;;;;;25.50;39.62;95096.41;6295087;27;110126;-74
2023/08/09 23:41:06;;;;;;;3.60;1.70;;;;;;;25.50;39.43;95096.41;6297591;27;110209;-74
2023/08/09 23:44:10;;;;;;;2.38;1.80;;;;;;;25.49;39.38;95092.16;6291718;27;108794;-73
2023/08/09 23:47:13;;;;;;;2.40;1.80;;;;;;;25.48;39.74;95098.66;6312520;27;109999;-73
2023/08/09 23:50:16;;;;;;;2.80;1.80;;;;;;;25.49;39.67;95099.44;6298106;27;109195;-74
2023/08/09 23:53:20;;;;;;;2.40;1.80;;;;;;;25.48;39.52;95104.00;6316817;27;109159;-74
2023/08/09 23:56:23;;;;;;;2.10;1.90;;;;;;;25.49;39.79;95099.44;6298726;27;110129;-74
2023/08/09 23:59:28;;;;;;;2.60;1.88;;;;;;;25.47;39.47;95093.63;6310959;27;109545;-72
